Time,TemperatureF,DewpointF,PressureIn,WindDirection,WindDirectionDegrees,WindSpeedMPH,WindSpeedGustMPH,Humidity,HourlyPrecipIn,Conditions,Clouds,dailyrainin,SoftwareType,DateUTC
2013-05-31 00:02:00,66.0,63.0,30.03,North,0,0.0,0.0,91,0.00,,,0.00,,2013-05-31 04:02:00,
2013-05-31 00:12:00,66.0,63.0,30.03,North,0,0.0,0.0,91,0.00,,,0.00,,2013-05-31 04:12:00,
2013-05-31 00:22:00,66.0,63.0,30.03,North,0,0.0,0.0,91,0.00,,,0.00,,2013-05-31 04:22:00,
2013-05-31 00:33:00,66.0,64.0,30.03,North,0,0.0,0.0,92,0.00,,,0.00,,2013-05-31 04:33:00,
2013-05-31 00:42:00,66.0,64.0,30.03,North,0,0.0,0.0,92,0.00,,,0.00,,2013-05-31 04:42:00,
2013-05-31 00:53:00,66.0,64.0,30.03,North,0,0.0,0.0,92,0.00,,,0.00,,2013-05-31 04:53:00,
2013-05-31 01:02:00,65.0,63.0,30.03,North,0,0.0,0.0,92,0.00,,,0.00,,2013-05-31 05:02:00,
2013-05-31 01:12:00,65.0,63.0,30.03,North,0,0.0,0.0,92,0.00,,,0.00,,2013-05-31 05:12:00,
2013-05-31 01:22:00,65.0,63.0,30.04,North,0,0.0,0.0,92,0.00,,,0.00,,2013-05-31 05:22:00,
2013-05-31 01:32:00,64.0,62.0,30.04,North,0,0.0,0.0,92,0.00,,,0.00,,2013-05-31 05:32:00,
2013-05-31 01:42:00,64.0,62.0,30.04,North,0,0.0,0.0,92,0.00,,,0.00,,2013-05-31 05:42:00,
2013-05-31 01:52:00,64.0,62.0,30.04,North,0,0.0,0.0,93,0.00,,,0.00,,2013-05-31 05:52:00,
2013-05-31 02:02:00,64.0,62.0,30.04,North,0,0.0,0.0,92,0.00,,,0.00,,2013-05-31 06:02:00,
2013-05-31 02:12:00,64.0,62.0,30.04,North,0,0.0,0.0,92,0.00,,,0.00,,2013-05-31 06:12:00,
2013-05-31 02:22:00,64.0,62.0,30.04,North,0,0.0,0.0,93,0.00,,,0.00,,2013-05-31 06:22:00,
2013-05-31 02:32:00,63.0,61.0,30.04,North,0,0.0,0.0,93,0.00,,,0.00,,2013-05-31 06:32:00,
2013-05-31 02:42:00,63.0,61.0,30.04,North,0,0.0,0.0,93,0.00,,,0.00,,2013-05-31 06:42:00,
2013-05-31 02:51:00,63.0,61.0,30.04,North,0,0.0,0.0,93,0.00,,,0.00,,2013-05-31 06:51:00,
2013-05-31 03:02:00,63.0,61.0,30.04,North,0,0.0,0.0,93,0.00,,,0.00,,2013-05-31 07:02:00,
2013-05-31 03:11:00,63.0,61.0,30.04,North,0,0.0,0.0,93,0.00,,,0.00,,2013-05-31 07:11:00,
2013-05-31 03:21:00,63.0,61.0,30.04,North,0,0.0,0.0,93,0.00,,,0.00,,2013-05-31 07:21:00,
2013-05-31 03:32:00,62.0,60.0,30.04,North,0,0.0,0.0,93,0.00,,,0.00,,2013-05-31 07:32:00,
2013-05-31 03:41:00,62.0,60.0,30.04,North,0,0.0,0.0,93,0.00,,,0.00,,2013-05-31 07:41:00,
2013-05-31 03:53:00,62.0,60.0,30.04,North,0,0.0,0.0,93,0.00,,,0.00,,2013-05-31 07:53:00,
2013-05-31 04:02:00,62.0,60.0,30.04,North,0,0.0,0.0,93,0.00,,,0.00,,2013-05-31 08:02:00,
2013-05-31 04:11:00,62.0,60.0,30.04,North,0,0.0,0.0,93,0.00,,,0.00,,2013-05-31 08:11:00,
2013-05-31 04:22:00,61.0,59.0,30.04,North,0,0.0,0.0,93,0.00,,,0.00,,2013-05-31 08:22:00,
2013-05-31 04:32:00,61.0,59.0,30.04,North,0,0.0,0.0,93,0.00,,,0.00,,2013-05-31 08:32:00,
2013-05-31 04:42:00,61.0,59.0,30.04,North,0,0.0,0.0,93,0.00,,,0.00,,2013-05-31 08:42:00,
2013-05-31 04:51:00,61.0,59.0,30.05,North,0,0.0,0.0,93,0.00,,,0.00,,2013-05-31 08:51:00,
2013-05-31 05:01:00,61.0,59.0,30.05,North,0,0.0,0.0,93,0.00,,,0.00,,2013-05-31 09:01:00,
2013-05-31 05:11:00,61.0,59.0,30.05,North,0,0.0,0.0,93,0.00,,,0.00,,2013-05-31 09:11:00,
2013-05-31 05:21:00,61.0,59.0,30.05,North,0,0.0,0.0,93,0.00,,,0.00,,2013-05-31 09:21:00,
2013-05-31 05:32:00,60.0,58.0,30.05,North,0,0.0,0.0,93,0.00,,,0.00,,2013-05-31 09:32:00,
2013-05-31 05:43:00,60.0,58.0,30.05,North,0,0.0,0.0,93,0.00,,,0.00,,2013-05-31 09:43:00,
2013-05-31 05:53:00,60.0,58.0,30.05,North,0,0.0,0.0,93,0.00,,,0.00,,2013-05-31 09:53:00,
2013-05-31 06:02:00,60.0,58.0,30.06,North,0,0.0,0.0,93,0.00,,,0.00,,2013-05-31 10:02:00,
2013-05-31 06:12:00,60.0,58.0,30.06,North,0,0.0,0.0,93,0.00,,,0.00,,2013-05-31 10:12:00,
2013-05-31 06:23:00,60.0,58.0,30.06,North,0,0.0,0.0,94,0.00,,,0.00,,2013-05-31 10:23:00,
2013-05-31 06:33:00,60.0,58.0,30.06,North,0,0.0,0.0,94,0.00,,,0.00,,2013-05-31 10:33:00,
2013-05-31 06:42:00,60.0,58.0,30.06,North,0,0.0,0.0,94,0.00,,,0.00,,2013-05-31 10:42:00,
2013-05-31 06:52:00,60.0,58.0,30.07,North,0,0.0,0.0,94,0.00,,,0.00,,2013-05-31 10:52:00,
2013-05-31 07:02:00,61.0,59.0,30.07,North,0,0.0,0.0,94,0.00,,,0.00,,2013-05-31 11:02:00,
2013-05-31 07:12:00,61.0,59.0,30.07,North,0,0.0,0.0,94,0.00,,,0.00,,2013-05-31 11:12:00,
2013-05-31 07:22:00,62.0,61.0,30.07,North,0,0.0,0.0,95,0.00,,,0.00,,2013-05-31 11:22:00,
2013-05-31 07:32:00,64.0,63.0,30.08,North,0,0.0,0.0,95,0.00,,,0.00,,2013-05-31 11:32:00,
2013-05-31 07:42:00,64.0,63.0,30.08,North,0,0.0,0.0,95,0.00,,,0.00,,2013-05-31 11:42:00,
2013-05-31 07:52:00,64.0,63.0,30.08,North,0,0.0,0.0,95,0.00,,,0.00,,2013-05-31 11:52:00,
2013-05-31 08:01:00,64.0,63.0,30.08,North,0,0.0,0.0,95,0.00,,,0.00,,2013-05-31 12:01:00,
2013-05-31 08:11:00,64.0,63.0,30.08,North,0,0.0,0.0,95,0.00,,,0.00,,2013-05-31 12:11:00,
2013-05-31 08:22:00,64.0,63.0,30.08,North,0,0.0,0.0,95,0.00,,,0.00,,2013-05-31 12:22:00,
2013-05-31 08:32:00,69.0,68.0,30.07,North,0,0.0,0.0,95,0.00,,,0.00,,2013-05-31 12:32:00,
2013-05-31 08:42:00,69.0,68.0,30.07,North,0,0.0,0.0,95,0.00,,,0.00,,2013-05-31 12:42:00,
2013-05-31 08:52:00,69.0,68.0,30.07,North,0,0.0,0.0,95,0.00,,,0.00,,2013-05-31 12:52:00,
2013-05-31 09:01:00,70.0,68.0,30.07,North,0,0.0,0.0,95,0.00,,,0.00,,2013-05-31 13:01:00,
2013-05-31 09:11:00,70.0,68.0,30.07,North,0,0.0,0.0,95,0.00,,,0.00,,2013-05-31 13:11:00,
2013-05-31 09:21:00,74.0,70.0,30.07,ESE,120,0.0,1.0,87,0.00,,,0.00,,2013-05-31 13:21:00,
2013-05-31 09:32:00,75.0,69.0,30.07,ESE,120,0.0,3.0,83,0.00,,,0.00,,2013-05-31 13:32:00,
2013-05-31 09:42:00,75.0,69.0,30.07,ESE,120,0.0,3.0,83,0.00,,,0.00,,2013-05-31 13:42:00,
2013-05-31 09:52:00,75.0,69.0,30.07,ESE,120,0.0,3.0,83,0.00,,,0.00,,2013-05-31 13:52:00,
2013-05-31 10:02:00,82.0,72.0,30.05,South,171,0.0,1.0,72,0.00,,,0.00,,2013-05-31 14:02:00,
2013-05-31 10:11:00,82.0,72.0,30.05,South,171,0.0,1.0,72,0.00,,,0.00,,2013-05-31 14:11:00,
2013-05-31 10:22:00,84.0,73.0,30.05,SSW,210,1.0,5.0,70,0.00,,,0.00,,2013-05-31 14:22:00,
2013-05-31 10:32:00,87.0,74.0,30.04,WNW,294,1.0,6.0,66,0.00,,,0.00,,2013-05-31 14:32:00,
2013-05-31 10:42:00,87.0,74.0,30.04,WNW,294,1.0,6.0,66,0.00,,,0.00,,2013-05-31 14:42:00,
2013-05-31 10:52:00,88.0,72.0,30.04,WNW,288,1.0,3.0,60,0.00,,,0.00,,2013-05-31 14:52:00,
2013-05-31 11:01:00,88.0,72.0,30.04,WNW,288,1.0,3.0,60,0.00,,,0.00,,2013-05-31 15:01:00,
2013-05-31 11:11:00,88.0,72.0,30.04,WNW,288,1.0,3.0,60,0.00,,,0.00,,2013-05-31 15:11:00,
2013-05-31 11:21:00,89.0,76.0,30.03,SW,214,0.0,4.0,65,0.00,,,0.00,,2013-05-31 15:21:00,
2013-05-31 11:33:00,89.0,70.0,30.03,WNW,289,2.0,7.0,53,0.00,,,0.00,,2013-05-31 15:33:00,
2013-05-31 11:43:00,89.0,70.0,30.03,WNW,289,2.0,7.0,53,0.00,,,0.00,,2013-05-31 15:43:00,
2013-05-31 11:53:00,90.0,71.0,30.03,WNW,290,2.0,8.0,53,0.00,,,0.00,,2013-05-31 15:53:00,
2013-05-31 12:03:00,90.0,66.0,30.03,West,259,3.0,11.0,46,0.00,,,0.00,,2013-05-31 16:03:00,
2013-05-31 12:12:00,90.0,66.0,30.03,West,259,3.0,11.0,46,0.00,,,0.00,,2013-05-31 16:12:00,
2013-05-31 12:22:00,90.0,66.0,30.03,West,259,3.0,11.0,46,0.00,,,0.00,,2013-05-31 16:22:00,
2013-05-31 12:33:00,92.0,70.0,30.01,West,268,2.0,9.0,49,0.00,,,0.00,,2013-05-31 16:33:00,
2013-05-31 12:42:00,92.0,70.0,30.01,West,268,2.0,9.0,49,0.00,,,0.00,,2013-05-31 16:42:00,
2013-05-31 12:53:00,92.0,68.0,30.01,WSW,251,2.0,10.0,46,0.00,,,0.00,,2013-05-31 16:53:00,
2013-05-31 13:02:00,92.0,66.0,30.00,WNW,283,2.0,10.0,42,0.00,,,0.00,,2013-05-31 17:02:00,
2013-05-31 13:12:00,92.0,66.0,30.00,WNW,283,2.0,10.0,42,0.00,,,0.00,,2013-05-31 17:12:00,
2013-05-31 13:22:00,92.0,66.0,30.00,WNW,283,2.0,10.0,42,0.00,,,0.00,,2013-05-31 17:22:00,
2013-05-31 13:32:00,92.0,66.0,29.99,WNW,293,3.0,10.0,43,0.00,,,0.00,,2013-05-31 17:32:00,
2013-05-31 13:42:00,92.0,66.0,29.99,WNW,293,3.0,10.0,43,0.00,,,0.00,,2013-05-31 17:42:00,
2013-05-31 13:52:00,92.0,65.0,29.98,WNW,294,3.0,10.0,41,0.00,,,0.00,,2013-05-31 17:52:00,
2013-05-31 14:02:00,93.0,73.0,29.98,WSW,239,2.0,9.0,52,0.00,,,0.00,,2013-05-31 18:02:00,
2013-05-31 14:12:00,93.0,73.0,29.98,WSW,239,2.0,9.0,52,0.00,,,0.00,,2013-05-31 18:12:00,
2013-05-31 14:22:00,93.0,68.0,29.98,WSW,254,2.0,10.0,45,0.00,,,0.00,,2013-05-31 18:22:00,
2013-05-31 14:32:00,94.0,69.0,29.97,SW,221,3.0,8.0,45,0.00,,,0.00,,2013-05-31 18:32:00,
2013-05-31 14:42:00,94.0,69.0,29.97,SW,221,3.0,8.0,45,0.00,,,0.00,,2013-05-31 18:42:00,
2013-05-31 14:52:00,94.0,69.0,29.97,SW,221,3.0,8.0,45,0.00,,,0.00,,2013-05-31 18:52:00,
2013-05-31 15:02:00,92.0,70.0,29.96,West,270,2.0,12.0,49,0.00,,,0.00,,2013-05-31 19:02:00,
2013-05-31 15:11:00,92.0,70.0,29.96,West,270,2.0,12.0,49,0.00,,,0.00,,2013-05-31 19:11:00,
2013-05-31 15:22:00,92.0,70.0,29.96,West,270,2.0,12.0,49,0.00,,,0.00,,2013-05-31 19:22:00,
2013-05-31 15:32:00,92.0,67.0,29.96,WSW,240,3.0,15.0,44,0.00,,,0.00,,2013-05-31 19:32:00,
2013-05-31 15:42:00,92.0,67.0,29.96,WSW,240,3.0,15.0,44,0.00,,,0.00,,2013-05-31 19:42:00,
2013-05-31 15:52:00,92.0,67.0,29.96,WSW,240,3.0,15.0,44,0.00,,,0.00,,2013-05-31 19:52:00,
2013-05-31 16:02:00,92.0,67.0,29.96,WSW,240,3.0,15.0,44,0.00,,,0.00,,2013-05-31 20:02:00,
2013-05-31 16:11:00,92.0,67.0,29.96,WSW,240,3.0,15.0,44,0.00,,,0.00,,2013-05-31 20:11:00,
2013-05-31 16:22:00,90.0,67.0,29.94,West,279,2.0,9.0,47,0.00,,,0.00,,2013-05-31 20:22:00,
2013-05-31 16:32:00,90.0,70.0,29.94,WSW,253,1.0,6.0,52,0.00,,,0.00,,2013-05-31 20:32:00,
2013-05-31 16:42:00,90.0,70.0,29.94,WSW,253,1.0,6.0,52,0.00,,,0.00,,2013-05-31 20:42:00,
2013-05-31 16:52:00,90.0,70.0,29.94,WSW,253,1.0,6.0,52,0.00,,,0.00,,2013-05-31 20:52:00,
2013-05-31 17:01:00,90.0,69.0,29.93,WSW,245,2.0,7.0,50,0.00,,,0.00,,2013-05-31 21:01:00,
2013-05-31 17:11:00,90.0,69.0,29.93,WSW,245,2.0,7.0,50,0.00,,,0.00,,2013-05-31 21:11:00,
2013-05-31 17:22:00,90.0,69.0,29.93,WSW,245,2.0,7.0,50,0.00,,,0.00,,2013-05-31 21:22:00,
2013-05-31 17:33:00,90.0,68.0,29.92,WSW,245,2.0,9.0,49,0.00,,,0.00,,2013-05-31 21:33:00,
2013-05-31 17:42:00,90.0,68.0,29.92,WSW,245,2.0,9.0,49,0.00,,,0.00,,2013-05-31 21:42:00,
2013-05-31 17:53:00,90.0,69.0,29.92,WSW,242,2.0,7.0,51,0.00,,,0.00,,2013-05-31 21:53:00,
2013-05-31 18:03:00,89.0,68.0,29.91,WSW,250,1.0,8.0,50,0.00,,,0.00,,2013-05-31 22:03:00,
2013-05-31 18:12:00,89.0,68.0,29.91,WSW,250,1.0,8.0,50,0.00,,,0.00,,2013-05-31 22:12:00,
2013-05-31 18:22:00,90.0,71.0,29.91,WSW,246,1.0,7.0,53,0.00,,,0.00,,2013-05-31 22:22:00,
2013-05-31 18:30:00,88.0,70.0,29.91,West,264,2.0,8.0,55,0.00,,,0.00,,2013-05-31 22:30:00,
2013-05-31 18:33:00,88.0,68.0,29.91,West,269,1.0,7.0,52,0.00,,,0.00,,2013-05-31 22:33:00,
2013-05-31 18:42:00,88.0,70.0,29.91,West,264,2.0,8.0,55,0.00,,,0.00,,2013-05-31 22:42:00,
2013-05-31 18:52:00,88.0,70.0,29.91,West,264,2.0,8.0,55,0.00,,,0.00,,2013-05-31 22:52:00,
2013-05-31 19:02:00,88.0,70.0,29.91,West,264,2.0,8.0,55,0.00,,,0.00,,2013-05-31 23:02:00,
2013-05-31 19:12:00,88.0,70.0,29.91,West,264,2.0,8.0,55,0.00,,,0.00,,2013-05-31 23:12:00,
2013-05-31 19:21:00,88.0,70.0,29.91,West,264,2.0,8.0,55,0.00,,,0.00,,2013-05-31 23:21:00,
2013-05-31 19:42:00,87.0,70.0,29.90,West,265,0.0,1.0,58,0.00,,,0.00,,2013-05-31 23:42:00,
2013-05-31 19:52:00,87.0,70.0,29.90,West,265,0.0,1.0,58,0.00,,,0.00,,2013-05-31 23:52:00,
2013-05-31 20:01:00,86.0,74.0,29.91,North,0,0.0,0.0,67,0.00,,,0.00,,2013-06-01 00:01:00,
2013-05-31 20:12:00,86.0,74.0,29.91,North,0,0.0,0.0,67,0.00,,,0.00,,2013-06-01 00:12:00,
2013-05-31 20:22:00,86.0,74.0,29.91,North,0,0.0,0.0,67,0.00,,,0.00,,2013-06-01 00:22:00,
2013-05-31 20:32:00,80.0,70.0,29.91,North,0,0.0,0.0,71,0.00,,,0.00,,2013-06-01 00:32:00,
2013-05-31 20:42:00,79.0,70.0,29.91,North,0,0.0,0.0,74,0.00,,,0.00,,2013-06-01 00:42:00,
2013-05-31 20:52:00,79.0,70.0,29.91,North,0,0.0,0.0,74,0.00,,,0.00,,2013-06-01 00:52:00,
2013-05-31 21:02:00,79.0,70.0,29.91,North,0,0.0,0.0,74,0.00,,,0.00,,2013-06-01 01:02:00,
2013-05-31 21:11:00,79.0,70.0,29.91,North,0,0.0,0.0,74,0.00,,,0.00,,2013-06-01 01:11:00,
2013-05-31 21:22:00,76.0,69.0,29.92,WSW,246,0.0,4.0,78,0.00,,,0.00,,2013-06-01 01:22:00,
2013-05-31 21:32:00,76.0,69.0,29.92,WSW,246,0.0,4.0,78,0.00,,,0.00,,2013-06-01 01:32:00,
2013-05-31 21:42:00,77.0,69.0,29.94,SW,219,0.0,4.0,76,0.00,,,0.00,,2013-06-01 01:42:00,
2013-05-31 21:52:00,77.0,69.0,29.94,SW,219,0.0,4.0,76,0.00,,,0.00,,2013-06-01 01:52:00,
2013-05-31 22:01:00,76.0,69.0,29.94,SW,223,0.0,4.0,78,0.00,,,0.00,,2013-06-01 02:01:00,
2013-05-31 22:12:00,76.0,69.0,29.94,SW,223,0.0,4.0,78,0.00,,,0.00,,2013-06-01 02:12:00,
2013-05-31 22:21:00,75.0,68.0,29.94,WSW,253,0.0,6.0,78,0.00,,,0.00,,2013-06-01 02:21:00,
2013-05-31 22:32:00,74.0,67.0,29.94,West,280,0.0,1.0,79,0.00,,,0.00,,2013-06-01 02:32:00,
2013-05-31 22:42:00,74.0,67.0,29.94,West,280,0.0,1.0,79,0.00,,,0.00,,2013-06-01 02:42:00,
2013-05-31 22:51:00,74.0,67.0,29.94,West,280,0.0,1.0,79,0.00,,,0.00,,2013-06-01 02:51:00,
2013-05-31 23:02:00,74.0,68.0,29.95,West,275,0.0,1.0,81,0.00,,,0.00,,2013-06-01 03:02:00,
2013-05-31 23:11:00,74.0,68.0,29.95,West,275,0.0,1.0,81,0.00,,,0.00,,2013-06-01 03:11:00,
2013-05-31 23:21:00,74.0,68.0,29.95,West,275,0.0,1.0,81,0.00,,,0.00,,2013-06-01 03:21:00,
2013-05-31 23:33:00,73.0,68.0,29.95,WSW,252,0.0,1.0,84,0.00,,,0.00,,2013-06-01 03:33:00,
2013-05-31 23:43:00,72.0,67.0,29.95,WSW,248,0.0,2.0,85,0.00,,,0.00,,2013-06-01 03:43:00,
2013-05-31 23:53:00,72.0,67.0,29.95,WSW,248,0.0,2.0,85,0.00,,,0.00,,2013-06-01 03:53:00,